Marataizes, Brazil
Current Conditions -  °F | °C
As of 4:00 PM on Sunday 21 Dec 2014 (Local Time) from SBCP Reporting Station
Few Clouds Few Clouds  
Wind Chill: 91°   Ceiling: Unl
Heat Index: 102°   Visibility: 6mi
Dew Point: 75°   Wind: 14mph
Humidity: 59%   Direction: 40°NE
Pressure: 29.77"   Gusts: NA
Location:  21.03°S, 40.84°W
Report Text: SBCP 211800Z 04012KT 9999 FEW030TCU 33/24 Q1008
Loading
Personal Weather Stations






























Interactive Weather Map New forecast layout! Learn more

10-Day Weather Forecast

Advertisements
Track Severe Weather on mobile